createdAt,value
2023-05-14T00:04:36.728Z,63.34
2023-05-14T00:09:40.376Z,60.28
2023-05-14T00:14:43.227Z,57.71
2023-05-14T00:19:46.051Z,60.26
2023-05-14T00:24:48.615Z,66.16
2023-05-14T00:29:51.260Z,63.80
2023-05-14T00:34:53.863Z,60.43
2023-05-14T00:39:58.159Z,57.90
2023-05-14T00:45:00.784Z,61.26
2023-05-14T00:50:04.019Z,67.23
2023-05-14T00:55:07.681Z,64.07
2023-05-14T01:00:11.072Z,60.96
2023-05-14T01:05:14.341Z,58.97
2023-05-14T01:10:29.706Z,58.62
2023-05-14T01:15:35.434Z,62.42
2023-05-14T01:20:38.162Z,66.69
2023-05-14T01:25:41.048Z,62.22
2023-05-14T01:30:57.036Z,58.64
2023-05-14T01:36:00.004Z,58.76
2023-05-14T01:41:03.198Z,62.24
2023-05-14T01:46:05.821Z,67.70
2023-05-14T01:51:08.644Z,63.60
2023-05-14T01:56:11.253Z,60.30
2023-05-14T02:01:13.911Z,58.10
2023-05-14T02:06:16.532Z,61.55
2023-05-14T02:11:19.072Z,67.55
2023-05-14T02:16:21.700Z,64.46
2023-05-14T02:21:24.433Z,61.22
2023-05-14T02:26:27.191Z,59.68
2023-05-14T02:31:30.313Z,58.01
2023-05-14T02:36:33.113Z,61.26
2023-05-14T02:41:35.860Z,67.41
2023-05-14T02:46:38.392Z,64.66
2023-05-14T02:51:40.970Z,60.98
2023-05-14T02:56:43.772Z,57.83
2023-05-14T03:01:46.438Z,60.26
2023-05-14T03:06:49.405Z,66.17
2023-05-14T03:11:52.007Z,63.48
2023-05-14T03:16:54.644Z,60.22
2023-05-14T03:21:57.192Z,57.61
2023-05-14T03:26:59.700Z,60.82
2023-05-14T03:32:02.248Z,66.43
2023-05-14T03:37:05.479Z,62.31
2023-05-14T03:42:08.133Z,59.45
2023-05-14T03:47:11.246Z,56.87
2023-05-14T03:52:13.823Z,59.22
2023-05-14T03:57:16.463Z,64.68
2023-05-14T04:02:19.191Z,61.81
2023-05-14T04:07:21.981Z,56.95
2023-05-14T04:12:24.595Z,60.10
2023-05-14T04:17:27.250Z,63.01
2023-05-14T04:22:29.763Z,64.47
2023-05-14T04:27:33.677Z,59.58
2023-05-14T04:32:36.613Z,56.49
2023-05-14T04:37:39.237Z,59.23
2023-05-14T04:42:42.420Z,60.64
2023-05-14T04:47:46.718Z,65.30
2023-05-14T04:52:49.355Z,61.45
2023-05-14T04:57:51.967Z,54.88
2023-05-14T05:02:54.722Z,55.69
2023-05-14T05:07:57.387Z,57.37
2023-05-14T05:13:00.421Z,57.75
2023-05-14T05:18:06.368Z,58.42
2023-05-14T05:23:09.013Z,58.57
2023-05-14T05:28:11.958Z,58.93
2023-05-14T05:33:14.692Z,58.63
2023-05-14T05:38:18.319Z,59.09
2023-05-14T05:43:21.006Z,58.76
2023-05-14T05:48:23.616Z,58.91
2023-05-14T05:53:26.196Z,58.82
2023-05-14T05:58:29.071Z,58.66
2023-05-14T06:03:33.946Z,58.68
2023-05-14T06:08:36.529Z,57.45
2023-05-14T06:13:39.168Z,57.25
2023-05-14T06:18:41.718Z,56.65
2023-05-14T06:23:44.581Z,57.01
2023-05-14T06:28:48.397Z,55.70
2023-05-14T06:33:52.278Z,55.54
2023-05-14T06:38:54.847Z,54.55
2023-05-14T06:43:57.764Z,54.39
2023-05-14T06:49:00.482Z,53.02
2023-05-14T06:54:04.474Z,52.48
2023-05-14T06:59:08.139Z,52.25
2023-05-14T07:04:11.045Z,51.22
2023-05-14T07:09:13.719Z,50.22
2023-05-14T07:14:16.430Z,48.64
2023-05-14T07:19:19.141Z,47.38
2023-05-14T07:24:21.973Z,45.27
2023-05-14T07:29:25.433Z,44.73
2023-05-14T07:34:28.008Z,43.59
2023-05-14T07:39:30.935Z,41.81
2023-05-14T07:44:33.499Z,40.49
2023-05-14T07:49:36.679Z,39.10
2023-05-14T07:54:41.635Z,40.07
2023-05-14T07:59:44.396Z,37.52
2023-05-14T08:04:46.927Z,36.83
2023-05-14T08:09:49.512Z,36.77
2023-05-14T08:14:53.447Z,36.75
2023-05-14T08:19:55.996Z,36.91
2023-05-14T08:24:59.597Z,34.21
2023-05-14T08:30:02.188Z,34.29
2023-05-14T08:35:05.321Z,34.10
2023-05-14T08:40:09.359Z,33.69
2023-05-14T08:45:19.832Z,33.76
2023-05-14T08:50:23.736Z,32.64
2023-05-14T08:55:26.786Z,32.43
2023-05-14T09:00:29.517Z,32.84
2023-05-14T09:05:33.351Z,32.91
2023-05-14T09:10:36.241Z,31.17
2023-05-14T09:15:41.314Z,30.74
2023-05-14T09:20:44.180Z,31.14
2023-05-14T09:25:48.412Z,31.27
2023-05-14T09:30:52.138Z,29.40
2023-05-14T09:36:01.805Z,29.64
2023-05-14T09:41:04.528Z,29.17
2023-05-14T09:46:07.086Z,30.14
2023-05-14T09:51:11.508Z,30.81
2023-05-14T09:56:14.740Z,26.51
2023-05-14T10:01:20.076Z,26.90
2023-05-14T10:06:28.490Z,27.52
2023-05-14T10:11:34.213Z,27.36
2023-05-14T10:16:51.494Z,28.06
2023-05-14T10:22:04.594Z,26.70
2023-05-14T10:27:07.647Z,26.30
2023-05-14T10:32:13.178Z,26.07
2023-05-14T10:37:18.151Z,26.77
2023-05-14T10:42:32.444Z,26.21
2023-05-14T10:47:40.006Z,25.26
2023-05-14T10:52:44.083Z,25.02
2023-05-14T10:57:46.974Z,24.10
2023-05-14T11:02:49.852Z,25.39
2023-05-14T11:07:56.760Z,24.72
2023-05-14T11:12:59.589Z,24.81
2023-05-14T11:18:02.246Z,25.16
2023-05-14T11:23:05.084Z,24.27
2023-05-14T11:28:08.323Z,23.72
2023-05-14T11:33:11.490Z,25.61
2023-05-14T11:38:18.085Z,24.60
2023-05-14T11:43:23.734Z,23.75
2023-05-14T11:48:26.450Z,24.03
2023-05-14T11:53:31.112Z,27.18
2023-05-14T11:58:33.999Z,30.33
2023-05-14T12:03:36.918Z,33.23
2023-05-14T12:08:40.020Z,32.57
2023-05-14T12:13:42.569Z,31.75
2023-05-14T12:18:45.273Z,31.05
2023-05-14T12:23:48.160Z,29.93
2023-05-14T12:28:50.935Z,28.85
2023-05-14T12:33:53.476Z,28.91
2023-05-14T12:39:01.710Z,28.35
2023-05-14T12:44:04.837Z,28.98
2023-05-14T12:49:07.774Z,28.49
2023-05-14T12:54:11.238Z,28.82
2023-05-14T12:59:13.810Z,29.64
2023-05-14T13:04:16.481Z,29.14
2023-05-14T13:09:19.223Z,28.18
2023-05-14T13:14:21.897Z,27.73
2023-05-14T13:19:24.685Z,27.58
2023-05-14T13:24:27.857Z,27.72
2023-05-14T13:29:31.545Z,26.40
2023-05-14T13:34:34.144Z,24.64
2023-05-14T13:39:36.738Z,24.40
2023-05-14T13:44:39.400Z,24.54
2023-05-14T13:49:42.902Z,24.27
2023-05-14T13:54:45.929Z,23.61
2023-05-14T13:59:49.093Z,22.76
2023-05-14T14:04:51.763Z,21.43
2023-05-14T14:09:54.358Z,20.26
2023-05-14T14:14:57.114Z,20.21
2023-05-14T14:19:59.649Z,21.01
2023-05-14T14:25:02.883Z,20.70
2023-05-14T14:30:15.489Z,20.42
2023-05-14T14:35:19.792Z,18.15
2023-05-14T14:40:23.910Z,18.11
2023-05-14T14:45:26.573Z,17.86
2023-05-14T14:50:29.216Z,17.69
2023-05-14T14:55:32.024Z,16.73
2023-05-14T15:00:34.902Z,16.01
2023-05-14T15:05:37.749Z,15.93
2023-05-14T15:10:41.707Z,15.51
2023-05-14T15:15:44.517Z,15.81
2023-05-14T15:20:47.191Z,15.68
2023-05-14T15:25:50.071Z,15.29
2023-05-14T15:30:52.909Z,15.57
2023-05-14T15:35:57.621Z,15.50
2023-05-14T15:41:00.575Z,15.14
2023-05-14T15:46:03.379Z,15.23
2023-05-14T15:51:06.271Z,14.21
2023-05-14T15:56:08.996Z,14.06
2023-05-14T16:01:11.603Z,14.22
2023-05-14T16:06:14.237Z,14.67
2023-05-14T16:11:17.218Z,14.63
2023-05-14T16:16:22.819Z,15.24
2023-05-14T16:21:25.795Z,15.14
2023-05-14T16:26:29.230Z,15.65
2023-05-14T16:31:32.074Z,16.57
2023-05-14T16:36:34.846Z,17.76
2023-05-14T16:41:37.511Z,18.73
2023-05-14T16:46:40.338Z,19.85
2023-05-14T16:51:43.885Z,21.45
2023-05-14T16:56:49.161Z,22.39
2023-05-14T17:01:51.860Z,23.17
2023-05-14T17:06:54.541Z,24.04
2023-05-14T17:11:57.214Z,24.72
2023-05-14T17:16:59.910Z,25.29
2023-05-14T17:22:05.763Z,25.74
2023-05-14T17:27:08.653Z,26.11
2023-05-14T17:32:11.438Z,26.95
2023-05-14T17:37:14.264Z,27.21
2023-05-14T17:42:17.210Z,27.62
2023-05-14T17:47:20.697Z,28.04
2023-05-14T17:52:23.414Z,28.72
2023-05-14T17:57:26.548Z,29.24
2023-05-14T18:02:29.211Z,29.39
2023-05-14T18:07:32.334Z,29.24
2023-05-14T18:12:34.941Z,29.75
2023-05-14T18:17:37.775Z,29.65
2023-05-14T18:22:40.719Z,29.89
2023-05-14T18:27:45.053Z,30.17
2023-05-14T18:32:47.984Z,30.62
2023-05-14T18:37:50.864Z,30.93
2023-05-14T18:42:54.026Z,31.31
2023-05-14T18:47:57.006Z,31.85
2023-05-14T18:52:59.703Z,33.17
2023-05-14T18:58:03.062Z,34.04
2023-05-14T19:03:06.203Z,34.96
2023-05-14T19:08:08.902Z,36.80
2023-05-14T19:13:11.831Z,37.39
2023-05-14T19:18:15.802Z,38.36
2023-05-14T19:23:18.780Z,39.87
2023-05-14T19:28:21.415Z,41.04
2023-05-14T19:33:26.029Z,42.72
2023-05-14T19:38:29.586Z,42.85
2023-05-14T19:43:32.235Z,40.38
2023-05-14T19:48:36.155Z,41.19
2023-05-14T19:53:39.127Z,43.02
2023-05-14T19:58:41.777Z,41.62
2023-05-14T20:03:44.507Z,44.56
2023-05-14T20:08:47.121Z,45.29
2023-05-14T20:13:49.688Z,45.36
2023-05-14T20:18:53.500Z,44.60
2023-05-14T20:23:56.097Z,43.59
2023-05-14T20:28:58.722Z,43.22
2023-05-14T20:34:02.099Z,46.02
2023-05-14T20:39:06.175Z,46.08
2023-05-14T20:44:08.920Z,45.37
2023-05-14T20:49:11.507Z,46.01
2023-05-14T20:54:14.026Z,47.81
2023-05-14T20:59:16.708Z,48.45
2023-05-14T21:04:19.561Z,51.88
2023-05-14T21:09:23.673Z,50.50
2023-05-14T21:14:26.489Z,53.71
2023-05-14T21:19:29.038Z,52.74
2023-05-14T21:24:31.635Z,51.85
2023-05-14T21:29:34.749Z,51.81
2023-05-14T21:34:37.440Z,52.62
2023-05-14T21:39:40.093Z,52.23
2023-05-14T21:44:43.904Z,51.87
2023-05-14T21:49:46.537Z,51.28
2023-05-14T21:54:49.079Z,51.52
2023-05-14T21:59:51.613Z,52.60
2023-05-14T22:04:54.271Z,52.46
2023-05-14T22:09:56.894Z,52.72
2023-05-14T22:14:59.508Z,52.43
2023-05-14T22:20:05.586Z,51.40
2023-05-14T22:25:08.847Z,51.95
2023-05-14T22:30:11.875Z,52.85
2023-05-14T22:35:14.529Z,54.67
2023-05-14T22:40:17.137Z,54.91
2023-05-14T22:45:19.990Z,54.16
2023-05-14T22:50:22.585Z,53.56
2023-05-14T22:55:25.490Z,54.77
2023-05-14T23:00:28.283Z,55.09
2023-05-14T23:05:31.058Z,56.49
2023-05-14T23:10:35.403Z,57.96
2023-05-14T23:15:38.798Z,59.02
2023-05-14T23:20:41.515Z,56.87
2023-05-14T23:25:44.120Z,57.42
2023-05-14T23:30:46.658Z,57.47
2023-05-14T23:35:49.369Z,57.26
2023-05-14T23:40:51.900Z,57.37
2023-05-14T23:45:54.590Z,57.35
2023-05-14T23:50:57.168Z,57.05
2023-05-14T23:55:59.955Z,57.91
